createdAt,value
2019-03-22T00:02:37.257Z,102736.31
2019-03-22T00:06:40.799Z,102735.09
2019-03-22T00:10:46.870Z,102735.92
2019-03-22T00:14:50.672Z,102735.98
2019-03-22T00:18:54.238Z,102730.45
2019-03-22T00:22:58.710Z,102723.59
2019-03-22T00:27:02.628Z,102718.12
2019-03-22T00:31:06.348Z,102707.13
2019-03-22T00:35:11.104Z,102689.53
2019-03-22T00:39:14.814Z,102690.87
2019-03-22T00:43:18.422Z,102690.63
2019-03-22T00:47:23.057Z,102696.19
2019-03-22T00:51:26.724Z,102700.44
2019-03-22T00:55:30.386Z,102702.22
2019-03-22T00:59:34.006Z,102715.69
2019-03-22T01:03:37.560Z,102709.36
2019-03-22T01:07:41.228Z,102699.00
2019-03-22T01:11:44.842Z,102697.47
2019-03-22T01:15:48.459Z,102693.67
2019-03-22T01:19:52.071Z,102675.30
2019-03-22T01:23:55.863Z,102674.66
2019-03-22T01:27:59.505Z,102686.19
2019-03-22T01:32:03.043Z,102700.02
2019-03-22T01:36:06.732Z,102698.22
2019-03-22T01:40:12.092Z,102695.66
2019-03-22T01:44:15.702Z,102695.38
2019-03-22T01:48:19.452Z,102696.38
2019-03-22T01:52:23.136Z,102691.00
2019-03-22T01:56:26.770Z,102697.05
2019-03-22T02:00:30.767Z,102695.55
2019-03-22T02:04:34.358Z,102698.69
2019-03-22T02:08:38.203Z,102699.19
2019-03-22T02:12:41.923Z,102702.59
2019-03-22T02:16:45.636Z,102704.89
2019-03-22T02:20:49.177Z,102701.88
2019-03-22T02:24:52.892Z,102689.86
2019-03-22T02:28:56.481Z,102690.66
2019-03-22T02:33:00.091Z,102699.70
2019-03-22T02:37:04.932Z,102691.22
2019-03-22T02:41:08.587Z,102677.59
2019-03-22T02:45:14.327Z,102675.66
2019-03-22T02:49:17.924Z,102677.27
2019-03-22T02:53:21.650Z,102668.97
2019-03-22T02:57:25.471Z,102684.09
2019-03-22T03:01:29.281Z,102679.41
2019-03-22T03:05:33.002Z,102682.03
2019-03-22T03:09:36.610Z,102690.23
2019-03-22T03:13:40.511Z,102692.06
2019-03-22T03:17:44.066Z,102683.64
2019-03-22T03:21:47.770Z,102677.78
2019-03-22T03:25:51.372Z,102675.92
2019-03-22T03:29:55.343Z,102676.81
2019-03-22T03:33:58.918Z,102685.30
2019-03-22T03:38:02.629Z,102684.54
2019-03-22T03:42:06.446Z,102687.00
2019-03-22T03:46:10.164Z,102688.36
2019-03-22T03:50:13.880Z,102691.81
2019-03-22T03:54:17.430Z,102687.91
2019-03-22T03:58:21.107Z,102686.19
2019-03-22T04:02:25.172Z,102692.38
2019-03-22T04:06:28.740Z,102687.69
2019-03-22T04:10:32.738Z,102675.08
2019-03-22T04:14:36.380Z,102665.96
2019-03-22T04:18:40.005Z,102665.77
2019-03-22T04:22:43.766Z,102670.63
2019-03-22T04:26:47.396Z,102675.36
2019-03-22T04:30:51.038Z,102666.38
2019-03-22T04:34:54.652Z,102684.06
2019-03-22T04:38:58.263Z,102683.79
2019-03-22T04:43:01.885Z,102677.37
2019-03-22T04:47:07.673Z,102677.93
2019-03-22T04:51:12.177Z,102687.80
2019-03-22T04:55:16.683Z,102677.81
2019-03-22T04:59:21.423Z,102686.47
2019-03-22T05:03:29.494Z,102691.59
2019-03-22T05:07:33.581Z,102696.56
2019-03-22T05:11:38.310Z,102706.09
2019-03-22T05:15:43.182Z,102700.75
2019-03-22T05:19:49.874Z,102705.59
2019-03-22T05:23:56.738Z,102723.55
2019-03-22T05:28:02.614Z,102725.06
2019-03-22T05:32:08.038Z,102718.81
2019-03-22T05:36:11.588Z,102728.08
2019-03-22T05:40:16.231Z,102729.34
2019-03-22T05:44:19.841Z,102722.22
2019-03-22T05:48:24.073Z,102726.02
2019-03-22T05:52:27.785Z,102738.41
2019-03-22T05:56:31.623Z,102739.50
2019-03-22T06:00:35.527Z,102734.53
2019-03-22T06:04:39.151Z,102721.59
2019-03-22T06:08:42.861Z,102719.07
2019-03-22T06:12:46.469Z,102729.27
2019-03-22T06:16:50.190Z,102738.03
2019-03-22T06:20:53.801Z,102763.38
2019-03-22T06:24:57.588Z,102773.16
2019-03-22T06:29:01.243Z,102767.46
2019-03-22T06:33:04.965Z,102763.50
2019-03-22T06:37:08.676Z,102767.62
2019-03-22T06:41:12.314Z,102773.72
2019-03-22T06:45:15.897Z,102776.95
2019-03-22T06:49:19.614Z,102788.72
2019-03-22T06:53:23.227Z,102798.50
2019-03-22T06:57:26.838Z,102793.36
2019-03-22T07:01:30.672Z,102789.17
2019-03-22T07:05:35.300Z,102787.39
2019-03-22T07:09:38.857Z,102779.72
2019-03-22T07:13:42.624Z,102783.82
2019-03-22T07:17:46.239Z,102768.31
2019-03-22T07:21:49.854Z,102755.31
2019-03-22T07:25:53.469Z,102759.17
2019-03-22T07:29:57.393Z,102766.52
2019-03-22T07:34:01.005Z,102765.74
2019-03-22T07:38:04.703Z,102770.52
2019-03-22T07:42:08.333Z,102766.28
2019-03-22T07:46:11.948Z,102765.30
2019-03-22T07:50:15.663Z,102754.69
2019-03-22T07:54:19.490Z,102750.89
2019-03-22T07:58:23.537Z,102752.05
2019-03-22T08:02:27.228Z,102752.59
2019-03-22T08:06:30.946Z,102758.50
2019-03-22T08:10:34.666Z,102751.42
2019-03-22T08:14:38.422Z,102745.00
2019-03-22T08:18:42.298Z,102748.91
2019-03-22T08:22:46.011Z,102747.20
2019-03-22T08:26:49.623Z,102750.26
2019-03-22T08:30:53.243Z,102747.30
2019-03-22T08:34:59.627Z,102742.86
2019-03-22T08:39:03.648Z,102734.95
2019-03-22T08:43:07.258Z,102731.59
2019-03-22T08:47:10.970Z,102731.73
2019-03-22T08:51:14.587Z,102726.58
2019-03-22T08:55:18.428Z,102736.97
2019-03-22T08:59:22.117Z,102736.77
2019-03-22T09:03:25.879Z,102734.63
2019-03-22T09:07:29.490Z,102729.87
2019-03-22T09:11:33.068Z,102734.39
2019-03-22T09:15:41.039Z,102731.78
2019-03-22T09:19:46.175Z,102725.69
2019-03-22T09:23:51.964Z,102726.36
2019-03-22T09:27:59.210Z,102727.70
2019-03-22T09:32:02.907Z,102713.36
2019-03-22T09:36:06.546Z,102706.16
2019-03-22T09:40:10.530Z,102712.83
2019-03-22T09:44:18.719Z,102702.22
2019-03-22T09:48:23.366Z,102698.88
2019-03-22T09:52:33.788Z,102699.70
2019-03-22T09:56:47.208Z,102686.89
2019-03-22T10:00:50.809Z,102681.44
2019-03-22T10:04:54.459Z,102690.53
2019-03-22T10:08:58.084Z,102681.89
2019-03-22T10:13:01.824Z,102672.85
2019-03-22T10:17:05.500Z,102680.77
2019-03-22T10:21:21.524Z,102675.09
2019-03-22T10:25:14.866Z,102658.85
2019-03-22T10:29:18.443Z,102657.08
2019-03-22T10:33:23.305Z,102661.44
2019-03-22T10:37:27.101Z,102652.60
2019-03-22T10:41:31.811Z,102645.59
2019-03-22T10:45:35.564Z,102646.31
2019-03-22T10:49:41.812Z,102641.52
2019-03-22T10:53:44.540Z,102631.62
2019-03-22T10:57:48.213Z,102624.41
2019-03-22T11:02:02.598Z,102617.52
2019-03-22T11:05:57.165Z,102615.54
2019-03-22T11:10:00.828Z,102616.86
2019-03-22T11:14:04.596Z,102613.76
2019-03-22T11:18:08.318Z,102615.26
2019-03-22T11:22:11.935Z,102604.42
2019-03-22T11:26:15.543Z,102588.52
2019-03-22T11:30:19.581Z,102590.86
2019-03-22T11:34:23.284Z,102586.70
2019-03-22T11:38:26.999Z,102576.55
2019-03-22T11:42:30.615Z,102568.33
2019-03-22T11:46:34.433Z,102570.15
2019-03-22T11:50:38.007Z,102568.22
2019-03-22T11:54:41.664Z,102558.64
2019-03-22T11:58:45.377Z,102550.23
2019-03-22T12:02:49.196Z,102536.50
2019-03-22T12:06:52.812Z,102530.25
2019-03-22T12:10:56.424Z,102536.28
2019-03-22T12:15:00.075Z,102534.17
2019-03-22T12:19:03.654Z,102522.88
2019-03-22T12:23:07.578Z,102523.95
2019-03-22T12:27:11.192Z,102508.00
2019-03-22T12:31:14.847Z,102489.78
2019-03-22T12:35:18.930Z,102483.55
2019-03-22T12:39:22.647Z,102481.41
2019-03-22T12:43:26.258Z,102471.63
2019-03-22T12:47:30.519Z,102462.71
2019-03-22T12:51:42.826Z,102460.44
2019-03-22T12:55:54.112Z,102456.03
2019-03-22T13:00:02.763Z,102450.84
2019-03-22T13:04:07.696Z,102443.72
2019-03-22T13:08:11.414Z,102441.78
2019-03-22T13:12:16.139Z,102446.14
2019-03-22T13:16:19.711Z,102437.46
2019-03-22T13:20:23.572Z,102431.83
2019-03-22T13:24:27.186Z,102433.45
2019-03-22T13:28:30.839Z,102422.89
2019-03-22T13:32:34.627Z,102418.72
2019-03-22T13:36:38.237Z,102411.77
2019-03-22T13:40:41.855Z,102406.68
2019-03-22T13:44:45.461Z,102401.88
2019-03-22T13:48:49.081Z,102397.48
2019-03-22T13:52:52.689Z,102383.98
2019-03-22T13:56:56.305Z,102383.06
2019-03-22T14:01:00.230Z,102380.72
2019-03-22T14:05:05.171Z,102370.61
2019-03-22T14:09:09.910Z,102364.81
2019-03-22T14:13:13.490Z,102351.34
2019-03-22T14:17:17.163Z,102345.67
2019-03-22T14:21:20.855Z,102348.45
2019-03-22T14:25:24.577Z,102344.38
2019-03-22T14:29:28.190Z,102336.68
2019-03-22T14:33:31.900Z,102333.23
2019-03-22T14:37:35.619Z,102324.73
2019-03-22T14:41:39.251Z,102322.85
2019-03-22T14:45:42.949Z,102321.80
2019-03-22T14:49:46.682Z,102316.28
2019-03-22T14:53:50.280Z,102308.50
2019-03-22T14:57:53.940Z,102304.37
2019-03-22T15:02:17.143Z,102297.60
2019-03-22T15:06:21.498Z,102286.27
2019-03-22T15:10:25.232Z,102284.73
2019-03-22T15:14:39.377Z,102279.78
2019-03-22T15:18:50.169Z,102278.07
2019-03-22T15:22:58.178Z,102279.05
2019-03-22T15:27:09.367Z,102267.72
2019-03-22T15:31:23.848Z,102266.50
2019-03-22T15:35:45.812Z,102264.11
2019-03-22T15:39:53.908Z,102261.23
2019-03-22T15:43:57.570Z,102254.45
2019-03-22T15:48:01.343Z,102245.39
2019-03-22T15:52:05.117Z,102245.72
2019-03-22T15:56:08.671Z,102236.13
2019-03-22T16:00:17.483Z,102225.36
2019-03-22T16:04:21.128Z,102226.77
2019-03-22T16:08:24.753Z,102216.25
2019-03-22T16:12:28.347Z,102212.80
2019-03-22T16:16:32.063Z,102205.88
2019-03-22T16:20:35.678Z,102202.97
2019-03-22T16:24:39.499Z,102199.69
2019-03-22T16:28:43.122Z,102195.86
2019-03-22T16:32:46.831Z,102189.52
2019-03-22T16:36:50.399Z,102189.22
2019-03-22T16:40:54.059Z,102185.34
2019-03-22T16:44:57.670Z,102175.16
2019-03-22T16:49:01.284Z,102179.78
2019-03-22T16:53:05.631Z,102179.44
2019-03-22T16:57:09.230Z,102178.72
2019-03-22T17:01:12.952Z,102175.94
2019-03-22T17:05:16.667Z,102178.28
2019-03-22T17:09:20.483Z,102178.71
2019-03-22T17:13:24.051Z,102174.60
2019-03-22T17:17:40.198Z,102160.39
2019-03-22T17:21:44.330Z,102164.70
2019-03-22T17:25:47.943Z,102158.64
2019-03-22T17:29:52.172Z,102162.97
2019-03-22T17:33:55.732Z,102158.19
2019-03-22T17:37:59.506Z,102162.50
2019-03-22T17:42:03.324Z,102163.50
2019-03-22T17:50:17.782Z,102153.42
2019-03-22T17:54:21.338Z,102169.91
2019-03-22T18:12:25.212Z,102160.32
2019-03-22T18:16:28.780Z,102156.88
2019-03-22T18:20:32.432Z,102155.45
2019-03-22T18:24:36.998Z,102161.46
2019-03-22T18:28:40.769Z,102160.97
2019-03-22T18:32:45.130Z,102162.83
2019-03-22T18:36:48.905Z,102162.16
2019-03-22T18:40:52.579Z,102158.41
2019-03-22T18:44:56.498Z,102162.59
2019-03-22T18:49:00.462Z,102164.81
2019-03-22T18:53:03.986Z,102161.48
2019-03-22T18:57:08.076Z,102164.47
2019-03-22T19:01:11.892Z,102166.47
2019-03-22T19:05:16.673Z,102167.16
2019-03-22T19:09:20.451Z,102165.20
2019-03-22T19:13:30.671Z,102170.03
2019-03-22T19:17:29.479Z,102174.82
2019-03-22T19:21:33.184Z,102168.53
2019-03-22T19:25:37.122Z,102174.27
2019-03-22T19:29:40.904Z,102174.19
2019-03-22T19:33:44.592Z,102182.01
2019-03-22T19:37:48.368Z,102176.48
2019-03-22T19:41:52.058Z,102176.33
2019-03-22T19:45:55.710Z,102177.52
2019-03-22T19:49:59.366Z,102187.36
2019-03-22T19:54:03.153Z,102179.04
2019-03-22T19:58:07.026Z,102172.61
2019-03-22T20:02:10.875Z,102175.86
2019-03-22T20:06:14.781Z,102184.70
2019-03-22T20:10:18.972Z,102174.66
2019-03-22T20:14:23.038Z,102171.70
2019-03-22T20:18:26.644Z,102173.48
2019-03-22T20:22:30.127Z,102165.50
2019-03-22T20:26:33.704Z,102160.73
2019-03-22T20:30:37.331Z,102158.92
2019-03-22T20:34:40.856Z,102157.56
2019-03-22T20:38:44.391Z,102152.13
2019-03-22T20:42:48.065Z,102146.58
2019-03-22T20:46:51.579Z,102142.12
2019-03-22T20:50:55.182Z,102134.48
2019-03-22T20:54:58.859Z,102131.14
2019-03-22T20:59:02.441Z,102133.78
2019-03-22T21:03:06.313Z,102134.45
2019-03-22T21:12:03.892Z,102133.27
2019-03-22T21:16:12.400Z,102131.25
2019-03-22T21:20:50.985Z,102125.12
2019-03-22T21:24:54.597Z,102120.50
2019-03-22T21:28:58.094Z,102112.81
2019-03-22T21:33:01.602Z,102121.13
2019-03-22T21:37:06.089Z,102118.64
2019-03-22T21:41:09.613Z,102113.78
2019-03-22T21:45:13.466Z,102108.09
2019-03-22T21:49:17.014Z,102103.94
2019-03-22T21:53:20.509Z,102099.57
2019-03-22T21:57:24.977Z,102101.44
2019-03-22T22:01:28.493Z,102099.39
2019-03-22T22:05:32.017Z,102099.64
2019-03-22T22:09:35.529Z,102093.57
2019-03-22T22:13:39.023Z,102090.69
2019-03-22T22:17:42.932Z,102076.66
2019-03-22T22:21:46.447Z,102072.08
2019-03-22T22:25:51.534Z,102066.05
2019-03-22T22:34:58.926Z,102066.50
2019-03-22T22:39:02.404Z,102064.28
2019-03-22T22:43:05.936Z,102052.75
2019-03-22T22:47:09.458Z,102048.00
2019-03-22T22:51:12.978Z,102047.86
2019-03-22T22:55:16.488Z,102043.56
2019-03-22T22:59:19.982Z,102038.40
2019-03-22T23:03:23.533Z,102022.87
2019-03-22T23:07:27.104Z,102022.87
2019-03-22T23:11:30.567Z,102021.14
2019-03-22T23:15:34.090Z,102015.53
2019-03-22T23:19:37.575Z,102007.98
2019-03-22T23:23:41.088Z,102009.30
2019-03-22T23:27:44.657Z,102011.66
2019-03-22T23:31:49.268Z,102006.70
2019-03-22T23:35:53.001Z,102002.85
2019-03-22T23:39:56.501Z,102006.31
2019-03-22T23:44:02.158Z,101998.84
2019-03-22T23:48:05.686Z,101991.91
2019-03-22T23:52:09.233Z,101979.09
2019-03-22T23:56:13.663Z,101975.38
